REACH41 KCHS-ETAR
Flight info
| Callsign | REACH41 |
|---|---|
| Flight time | N/A |
| Altitude | 29000 |
| Route | PLMTO3 CRE DCT YEASO Q97 ZJAAY Q167 RIFLE DCT ACK DCT ALLEX N565B TUDEP/M084F310 DCT 52N050W 53N040W 53N030W 52N020W DCT DINIM DCT ELSOX/M084F330 DCT ARKIL/N0486F330 DCT OXLOW DCT KONAN UL607 KOK DCT REMBA UL607 SPI T180 NIVNU T847 OLIVI Q762 XIDOD |
| Aircraft | B77L/H-SDE1E2E3FGHIJ2J3J4J5M1RWXY/LB1D1 |
Departure
| Time | 2026-04-20 07:43 |
|---|---|
| Airport | Charleston International Airport (KCHS) |
Arrival
| Time | N/A |
|---|---|
| Airport | Ramstein Air Base (ETAR) |
| Time | Latitude | Longitude | Altitude | Speed | Heading |
|---|---|---|---|---|---|
| 2026-04-20 07:02 | 32.89628 | -80.04561 | 52 ft | 0 kts | 271° |
| 2026-04-20 07:31 | 32.89627 | -80.04542 | 57 ft | 4 kts | 270° |
| 2026-04-20 07:31 | 32.89627 | -80.04516 | 59 ft | 4 kts | 269° |
| 2026-04-20 07:31 | 32.89631 | -80.04485 | 51 ft | 4 kts | 250° |
| 2026-04-20 07:31 | 32.89643 | -80.04457 | 51 ft | 5 kts | 229° |
| 2026-04-20 07:32 | 32.89650 | -80.04447 | 59 ft | 2 kts | 226° |
| 2026-04-20 07:32 | 32.89651 | -80.04447 | 59 ft | 0 kts | 226° |
| 2026-04-20 07:36 | 32.89620 | -80.04455 | 60 ft | 14 kts | 182° |
| 2026-04-20 07:36 | 32.89540 | -80.04457 | 52 ft | 9 kts | 181° |
| 2026-04-20 07:36 | 32.89470 | -80.04505 | 51 ft | 17 kts | 251° |
| 2026-04-20 07:37 | 32.89477 | -80.04630 | 52 ft | 14 kts | 314° |
| 2026-04-20 07:37 | 32.89514 | -80.04603 | 51 ft | 11 kts | 75° |
| 2026-04-20 07:37 | 32.89523 | -80.04481 | 58 ft | 10 kts | 63° |
| 2026-04-20 07:37 | 32.89609 | -80.04456 | 60 ft | 18 kts | 2° |
| 2026-04-20 07:38 | 32.89707 | -80.04375 | 58 ft | 21 kts | 87° |
| 2026-04-20 07:38 | 32.89691 | -80.04183 | 55 ft | 24 kts | 96° |
| 2026-04-20 07:38 | 32.89672 | -80.03988 | 51 ft | 24 kts | 96° |
| 2026-04-20 07:38 | 32.89654 | -80.03792 | 49 ft | 24 kts | 96° |
| 2026-04-20 07:39 | 32.89640 | -80.03648 | 49 ft | 17 kts | 96° |
| 2026-04-20 07:39 | 32.89626 | -80.03506 | 52 ft | 17 kts | 96° |
| 2026-04-20 07:39 | 32.89612 | -80.03363 | 52 ft | 17 kts | 96° |
| 2026-04-20 07:39 | 32.89598 | -80.03221 | 51 ft | 17 kts | 101° |
| 2026-04-20 07:40 | 32.89503 | -80.03159 | 48 ft | 17 kts | 184° |
| 2026-04-20 07:40 | 32.89383 | -80.03172 | 48 ft | 17 kts | 186° |
| 2026-04-20 07:40 | 32.89352 | -80.03176 | 50 ft | 0 kts | 186° |
| 2026-04-20 07:41 | 32.89335 | -80.03179 | 49 ft | 8 kts | 186° |
| 2026-04-20 07:41 | 32.89271 | -80.03192 | 46 ft | 10 kts | 203° |
| 2026-04-20 07:41 | 32.89264 | -80.03262 | 47 ft | 10 kts | 310° |
| 2026-04-20 07:42 | 32.89283 | -80.03280 | 48 ft | 0 kts | 324° |
| 2026-04-20 07:42 | 32.89314 | -80.03306 | 48 ft | 28 kts | 324° |
| 2026-04-20 07:42 | 32.89733 | -80.03624 | 50 ft | 113 kts | 328° |
| 2026-04-20 07:43 | 32.90614 | -80.04287 | 63 ft | 184 kts | 327° |
| 2026-04-20 07:43 | 32.91747 | -80.05172 | 547 ft | 199 kts | 327° |
| 2026-04-20 07:43 | 32.92992 | -80.05961 | 1050 ft | 214 kts | 344° |
| 2026-04-20 07:43 | 32.94484 | -80.05809 | 1547 ft | 226 kts | 30° |
| 2026-04-20 07:44 | 32.95614 | -80.04447 | 1980 ft | 244 kts | 68° |
| 2026-04-20 07:44 | 32.95827 | -80.02447 | 2550 ft | 249 kts | 91° |
| 2026-04-20 07:44 | 32.95938 | -80.00408 | 3175 ft | 244 kts | 72° |
| 2026-04-20 07:44 | 32.96356 | -79.98467 | 3849 ft | 248 kts | 73° |
| 2026-04-20 07:45 | 32.96735 | -79.96427 | 4507 ft | 254 kts | 74° |
| 2026-04-20 07:45 | 32.97105 | -79.94349 | 5198 ft | 258 kts | 74° |
| 2026-04-20 07:45 | 32.97483 | -79.92241 | 5830 ft | 263 kts | 74° |
| 2026-04-20 07:45 | 32.97872 | -79.90092 | 6455 ft | 268 kts | 74° |
| 2026-04-20 07:46 | 32.98268 | -79.87909 | 7091 ft | 273 kts | 74° |
| 2026-04-20 07:46 | 32.98678 | -79.85678 | 7715 ft | 278 kts | 75° |
| 2026-04-20 07:46 | 32.99099 | -79.83404 | 8296 ft | 284 kts | 75° |
| 2026-04-20 07:46 | 32.99529 | -79.81088 | 8905 ft | 288 kts | 75° |
| 2026-04-20 07:47 | 32.99961 | -79.78728 | 9440 ft | 295 kts | 75° |
| 2026-04-20 07:47 | 33.00408 | -79.76314 | 10012 ft | 301 kts | 75° |
| 2026-04-20 07:47 | 33.00866 | -79.73837 | 10409 ft | 314 kts | 75° |
| 2026-04-20 07:47 | 33.01550 | -79.71310 | 10493 ft | 327 kts | 58° |
| 2026-04-20 07:48 | 33.02802 | -79.68977 | 10663 ft | 344 kts | 52° |
| 2026-04-20 07:48 | 33.04193 | -79.66553 | 10857 ft | 365 kts | 53° |
| 2026-04-20 07:48 | 33.05645 | -79.63971 | 11136 ft | 382 kts | 53° |
| 2026-04-20 07:48 | 33.07131 | -79.61287 | 11642 ft | 392 kts | 54° |
| 2026-04-20 07:49 | 33.08619 | -79.58562 | 12200 ft | 401 kts | 54° |
| 2026-04-20 07:49 | 33.10150 | -79.55745 | 12822 ft | 407 kts | 54° |
| 2026-04-20 07:49 | 33.11697 | -79.52889 | 13470 ft | 412 kts | 54° |
| 2026-04-20 07:49 | 33.13258 | -79.50002 | 14075 ft | 417 kts | 54° |
| 2026-04-20 07:50 | 33.14842 | -79.47069 | 14684 ft | 423 kts | 55° |
| 2026-04-20 07:50 | 33.16447 | -79.44098 | 15280 ft | 428 kts | 55° |
| 2026-04-20 07:50 | 33.18066 | -79.41099 | 15857 ft | 433 kts | 55° |
| 2026-04-20 07:50 | 33.19716 | -79.38062 | 16401 ft | 437 kts | 53° |
| 2026-04-20 07:51 | 33.21677 | -79.35304 | 16806 ft | 438 kts | 40° |
| 2026-04-20 07:51 | 33.23985 | -79.32905 | 17286 ft | 442 kts | 37° |
| 2026-04-20 07:51 | 33.26358 | -79.30551 | 17820 ft | 446 kts | 36° |
| 2026-04-20 07:51 | 33.28758 | -79.28162 | 18334 ft | 451 kts | 37° |
| 2026-04-20 07:52 | 33.31162 | -79.25725 | 18870 ft | 455 kts | 38° |
| 2026-04-20 07:52 | 33.33567 | -79.23245 | 19376 ft | 459 kts | 38° |
| 2026-04-20 07:52 | 33.35990 | -79.20716 | 19840 ft | 465 kts | 38° |
| 2026-04-20 07:52 | 33.38429 | -79.18149 | 20303 ft | 469 kts | 38° |
| 2026-04-20 07:53 | 33.40888 | -79.15552 | 20747 ft | 474 kts | 38° |
| 2026-04-20 07:53 | 33.43369 | -79.12928 | 21209 ft | 478 kts | 38° |
| 2026-04-20 07:53 | 33.45869 | -79.10282 | 21684 ft | 481 kts | 38° |
| 2026-04-20 07:53 | 33.48386 | -79.07621 | 22112 ft | 486 kts | 38° |
| 2026-04-20 07:54 | 33.50900 | -79.04960 | 22516 ft | 490 kts | 38° |
| 2026-04-20 07:54 | 33.53464 | -79.02243 | 22960 ft | 493 kts | 38° |
| 2026-04-20 07:54 | 33.56041 | -78.99510 | 23400 ft | 497 kts | 38° |
| 2026-04-20 07:54 | 33.58640 | -78.96753 | 23785 ft | 501 kts | 38° |
| 2026-04-20 07:55 | 33.61257 | -78.93976 | 24200 ft | 505 kts | 38° |
| 2026-04-20 07:55 | 33.63896 | -78.91170 | 24602 ft | 508 kts | 38° |
| 2026-04-20 07:55 | 33.66550 | -78.88346 | 24984 ft | 512 kts | 37° |
| 2026-04-20 07:55 | 33.69221 | -78.85502 | 25405 ft | 515 kts | 37° |
| 2026-04-20 07:56 | 33.71904 | -78.82643 | 25836 ft | 517 kts | 37° |
| 2026-04-20 07:56 | 33.74602 | -78.79765 | 26206 ft | 520 kts | 37° |
| 2026-04-20 07:56 | 33.77312 | -78.76872 | 26544 ft | 524 kts | 37° |
| 2026-04-20 07:56 | 33.80048 | -78.73951 | 26904 ft | 527 kts | 37° |
| 2026-04-20 07:57 | 33.82905 | -78.71215 | 27230 ft | 522 kts | 27° |
| 2026-04-20 07:57 | 33.86061 | -78.69071 | 27526 ft | 520 kts | 21° |
| 2026-04-20 07:57 | 33.89314 | -78.67143 | 27890 ft | 521 kts | 19° |
| 2026-04-20 07:57 | 33.92599 | -78.65261 | 28242 ft | 523 kts | 19° |
| 2026-04-20 07:58 | 33.95886 | -78.63361 | 28614 ft | 525 kts | 20° |
| 2026-04-20 07:58 | 33.99126 | -78.61441 | 28966 ft | 528 kts | 20° |
| 2026-04-20 07:58 | 34.02417 | -78.59441 | 29176 ft | 532 kts | 21° |
| 2026-04-20 07:58 | 34.05734 | -78.57391 | 29200 ft | 538 kts | 21° |
| 2026-04-20 07:59 | 34.12363 | -78.53229 | 29260 ft | 536 kts | 21° |
| 2026-04-20 07:59 | 34.15678 | -78.51135 | 29436 ft | 538 kts | 21° |
| 2026-04-20 07:59 | 34.19003 | -78.49039 | 29777 ft | 538 kts | 21° |
| 2026-04-20 08:00 | 34.22319 | -78.46951 | 30137 ft | 538 kts | 21° |
| 2026-04-20 08:00 | 34.25636 | -78.44864 | 30512 ft | 537 kts | 21° |
| 2026-04-20 08:00 | 34.28948 | -78.42779 | 30913 ft | 535 kts | 21° |
| 2026-04-20 08:00 | 34.32249 | -78.40701 | 31230 ft | 536 kts | 21° |
| 2026-04-20 08:01 | 34.38898 | -78.36517 | 31266 ft | 539 kts | 21° |
| 2026-04-20 08:01 | 34.45512 | -78.32341 | 31258 ft | 534 kts | 21° |
| 2026-04-20 08:02 | 34.52051 | -78.28203 | 31267 ft | 533 kts | 21° |
| 2026-04-20 08:02 | 34.58635 | -78.24034 | 31273 ft | 533 kts | 21° |
| 2026-04-20 08:03 | 34.65216 | -78.19857 | 31265 ft | 534 kts | 21° |
| 2026-04-20 08:03 | 34.71809 | -78.15665 | 31268 ft | 535 kts | 21° |
| 2026-04-20 08:04 | 34.78418 | -78.11457 | 31268 ft | 537 kts | 21° |
| 2026-04-20 08:04 | 34.83926 | -78.07943 | 31269 ft | 538 kts | 21° |
| 2026-04-20 08:05 | 34.90560 | -78.03703 | 31269 ft | 539 kts | 21° |
| 2026-04-20 08:05 | 34.97208 | -77.99444 | 31276 ft | 540 kts | 21° |
| 2026-04-20 08:06 | 35.03874 | -77.95168 | 31270 ft | 542 kts | 22° |
| 2026-04-20 08:06 | 35.10563 | -77.90869 | 31284 ft | 544 kts | 22° |
| 2026-04-20 08:07 | 35.17271 | -77.86548 | 31277 ft | 546 kts | 22° |
| 2026-04-20 08:07 | 35.24006 | -77.82203 | 31275 ft | 548 kts | 22° |
| 2026-04-20 08:08 | 35.30710 | -77.77865 | 31278 ft | 549 kts | 22° |
| 2026-04-20 08:08 | 35.37467 | -77.73493 | 31276 ft | 549 kts | 22° |
| 2026-04-20 08:09 | 35.44227 | -77.69108 | 31273 ft | 550 kts | 22° |